Accueil
METAR-TAF:

METAR-TAF

Aéroports :

Aéroport civil d'Amman

Amman, Jordanie

latitude: 31-59N, longitude: 035-59E, altitude: 767 m

Observation

Le bulletin a été fait il y a 48 minutes, à 07:00 UTC
Vent 11 kt de ouest/sud-ouest
Température 29°C
Humidité 37%
Pression 1008 hPa
Visibilité: 5000 m
brume sèche,

METAR: OJAM 250700Z 25011KT 5000 HZ NSC 29/13 Q1008 NOSIG

Heure: 10:48 (07:48 UTC)

Prévision

Le bulletin a été fait il y a 2 heures et 48 minutes, à 05:00 UTC
Prévision valable du 25 à 06 UTC au 26 à 12 UTC
Vent 10 kt de ouest
Visibilité: 5000 m
Quelques nuages à une hauteur de 3500 ft
brume sèche
Probabilité 40% :
Temporairement
du 25 à 12 UTC au 25 à 16 UTC
Vent 18 kt de ouest/nord-ouest
Visibilité: 4000 m
Chasse-poussière élevée,

TAF: OJAM 250500Z 2506/2612 28010KT 5000 HZ FEW035 PROB40 TEMPO 2512/2516 29018KT 4000 BLDU

Observations et prévisions météorologiques de plus de 4000 aéroports (messages METAR et TAF).

Les stations disponibles sont représentées par des disques jaunes et rouges sur la carte.

Passer la souris dessus pour voir le nom de la station.

Cliquer dessus pour voir les observations et prévisions météorologiques.

Pour changer de carte: cliquez sur les boutons verts avec une croix noire pour zoomer, sur le bouton vert avec un tiret pour effectuer un zoom arrière, ou sur les flèches vertes pour les cartes adjacentes.


METAR-TAF: